Time;durP1;ratioP1;P1;durP2;ratioP2;P2;SDS_P1;SDS_P2;PMS_P1;PMS_P2;Temp;Humidity;BMP_temperature;BMP_pressure;BME280_temperature;BME280_humidity;BME280_pressure;Samples;Min_cycle;Max_cycle;Signal;HPM_P1;HPM_P2
2021/12/19 00:12:52;;;;;;;0.00;0.00;;;;;;;6.19;100.00;103103.47;10398616;28;20057;-68
2021/12/19 00:17:53;;;;;;;0.10;0.10;;;;;;;6.19;100.00;103107.91;10367204;28;20026;-68
2021/12/19 00:22:53;;;;;;;0.00;0.00;;;;;;;6.20;100.00;103097.28;10367231;28;20045;-68
2021/12/19 00:27:54;;;;;;;0.00;0.00;;;;;;;6.21;100.00;103087.53;10367205;28;20029;-68
2021/12/19 00:32:54;;;;;;;0.00;0.00;;;;;;;6.22;100.00;103081.31;10378699;28;20280;-68
2021/12/19 00:37:55;;;;;;;0.00;0.00;;;;;;;6.23;100.00;103091.84;10394584;28;20284;-69
2021/12/19 00:43:07;;;;;;;0.00;0.00;;;;;;;6.24;100.00;103085.59;10407619;28;20060;-69
2021/12/19 00:48:08;;;;;;;0.00;0.00;;;;;;;6.25;100.00;103082.00;10401581;28;20025;-68
2021/12/19 00:53:09;;;;;;;0.00;0.00;;;;;;;6.26;100.00;103070.50;10407474;28;20025;-68
2021/12/19 00:58:10;;;;;;;0.00;0.00;;;;;;;6.25;100.00;103065.28;10406922;28;20072;-68
2021/12/19 01:03:10;;;;;;;0.00;0.00;;;;;;;6.25;100.00;103060.84;10407195;28;20053;-69
2021/12/19 01:08:13;;;;;;;0.00;0.00;;;;;;;6.25;100.00;103055.53;10389205;28;20018;-68
2021/12/19 01:13:15;;;;;;;0.00;0.00;;;;;;;6.26;100.00;103043.19;10376338;28;20031;-69
2021/12/19 01:18:15;;;;;;;0.10;0.10;;;;;;;6.28;100.00;103038.66;10407150;28;20366;-69
2021/12/19 01:23:16;;;;;;;0.10;0.10;;;;;;;6.29;100.00;103045.69;10401836;28;20029;-69
2021/12/19 01:28:18;;;;;;;0.10;0.10;;;;;;;6.30;100.00;103050.03;10406709;28;20030;-69
2021/12/19 01:33:18;;;;;;;0.00;0.00;;;;;;;6.33;100.00;103036.63;10407528;28;20348;-69
2021/12/19 01:38:18;;;;;;;0.00;0.00;;;;;;;6.32;100.00;103054.31;10400752;28;20029;-69
2021/12/19 01:43:24;;;;;;;0.10;0.10;;;;;;;6.32;100.00;103041.09;10392134;28;20291;-68
2021/12/19 01:48:25;;;;;;;0.00;0.00;;;;;;;6.30;100.00;103037.66;10387777;23;20113;-68
2021/12/19 01:53:26;;;;;;;0.00;0.00;;;;;;;6.30;100.00;103024.41;10436758;28;20116;-68
2021/12/19 01:58:26;;;;;;;0.00;0.00;;;;;;;6.33;100.00;103024.25;10452073;28;20033;-68
2021/12/19 02:03:27;;;;;;;0.10;0.10;;;;;;;6.33;100.00;103021.59;10443821;28;20116;-68
2021/12/19 02:08:27;;;;;;;0.00;0.00;;;;;;;6.33;100.00;103013.66;10425516;28;20476;-68
2021/12/19 02:13:28;;;;;;;0.00;0.00;;;;;;;6.32;100.00;103004.03;10431284;28;20066;-68
2021/12/19 02:18:28;;;;;;;0.00;0.00;;;;;;;6.30;100.00;103005.03;10454140;28;20079;-68
2021/12/19 02:23:29;;;;;;;0.00;0.00;;;;;;;6.36;100.00;103004.72;10453865;28;20033;-68
2021/12/19 02:28:29;;;;;;;0.00;0.00;;;;;;;6.36;100.00;102991.47;10453064;28;20033;-69
2021/12/19 02:33:33;;;;;;;0.00;0.00;;;;;;;6.36;100.00;102988.84;10452273;28;20602;-68
2021/12/19 02:49:19;;;;;;;0.00;0.00;;;;;;;6.35;100.00;102995.94;10411700;28;20033;-68
2021/12/19 02:54:21;;;;;;;0.00;0.00;;;;;;;6.34;100.00;102970.41;10410453;28;20180;-68
2021/12/19 02:59:21;;;;;;;0.00;0.00;;;;;;;6.35;100.00;102976.53;10430480;28;20036;-68
2021/12/19 03:04:22;;;;;;;0.00;0.00;;;;;;;6.32;100.00;102966.97;10414794;28;20028;-69
2021/12/19 03:09:42;;;;;;;0.10;0.10;;;;;;;6.28;100.00;102970.72;10443350;28;20508;-68
2021/12/19 03:20:02;;;;;;;0.08;0.08;;;;;;;6.23;100.00;102956.00;10416771;28;20030;-68
2021/12/19 03:25:03;;;;;;;0.00;0.00;;;;;;;6.23;100.00;102943.63;10451648;28;20028;-68
2021/12/19 03:30:06;;;;;;;0.00;0.00;;;;;;;6.21;100.00;102949.94;10417691;28;20116;-68
2021/12/19 03:35:07;;;;;;;0.00;0.00;;;;;;;6.17;100.00;102935.13;10417055;28;20021;-68
2021/12/19 03:40:12;;;;;;;0.00;0.00;;;;;;;6.13;100.00;102939.72;10445316;28;20124;-68
2021/12/19 03:45:16;;;;;;;0.00;0.00;;;;;;;6.08;100.00;102910.03;10450765;28;20103;-68
2021/12/19 03:50:21;;;;;;;0.10;0.10;;;;;;;5.97;100.00;102928.22;10450513;28;20024;-68
2021/12/19 03:55:24;;;;;;;0.10;0.10;;;;;;;5.85;100.00;102914.66;10442006;28;20494;-69
2021/12/19 04:00:27;;;;;;;0.00;0.00;;;;;;;5.82;100.00;102909.53;10450107;28;20029;-68
2021/12/19 04:05:27;;;;;;;0.10;0.10;;;;;;;5.82;100.00;102898.09;10447435;28;20025;-68
2021/12/19 04:10:28;;;;;;;0.00;0.00;;;;;;;5.80;100.00;102903.44;10441882;28;20029;-68
2021/12/19 04:15:28;;;;;;;0.00;0.00;;;;;;;5.78;100.00;102880.66;10449884;28;20396;-69
2021/12/19 04:20:29;;;;;;;0.10;0.10;;;;;;;5.76;100.00;102885.16;10417637;28;20085;-68
2021/12/19 04:25:30;;;;;;;0.10;0.10;;;;;;;5.75;100.00;102871.09;10408556;28;20025;-68
2021/12/19 04:30:31;;;;;;;0.03;0.03;;;;;;;5.77;100.00;102884.25;10411366;28;20064;-69
2021/12/19 04:35:36;;;;;;;0.00;0.00;;;;;;;5.80;100.00;102863.78;10418432;28;20498;-68
2021/12/19 04:40:59;;;;;;;0.10;0.10;;;;;;;5.83;100.00;102863.63;10443576;28;20195;-68
2021/12/19 04:57:00;;;;;;;0.00;0.00;;;;;;;5.93;100.00;102863.13;10449514;28;20029;-68
2021/12/19 05:17:54;;;;;;;0.00;0.00;;;;;;;5.93;100.00;102834.94;10415684;28;20485;-68
2021/12/19 05:23:01;;;;;;;0.00;0.00;;;;;;;5.97;100.00;102825.91;10416089;28;20032;-68
2021/12/19 05:28:02;;;;;;;0.00;0.00;;;;;;;6.00;100.00;102812.53;10423851;28;20029;-69
2021/12/19 05:33:03;;;;;;;0.00;0.00;;;;;;;6.02;100.00;102793.91;10415225;28;20029;-68
2021/12/19 05:48:41;;;;;;;0.00;0.00;;;;;;;6.12;100.00;102789.84;10456533;28;20152;-68
2021/12/19 05:53:41;;;;;;;0.00;0.00;;;;;;;6.13;100.00;102802.97;10455350;28;20021;-68
2021/12/19 05:58:42;;;;;;;0.00;0.00;;;;;;;6.13;100.00;102787.09;10455000;28;20036;-68
2021/12/19 06:03:42;;;;;;;0.00;0.00;;;;;;;6.17;100.00;102782.53;10454872;28;20553;-68
2021/12/19 06:08:42;;;;;;;0.10;0.10;;;;;;;6.21;100.00;102794.66;10441586;28;20400;-68
2021/12/19 06:13:43;;;;;;;0.00;0.00;;;;;;;6.22;100.00;102761.09;10448633;28;20041;-69
2021/12/19 06:18:44;;;;;;;0.00;0.00;;;;;;;6.23;100.00;102774.25;10423946;28;20029;-68
2021/12/19 06:23:44;;;;;;;0.00;0.00;;;;;;;6.27;100.00;102777.59;10454572;28;20036;-68
2021/12/19 06:28:44;;;;;;;0.00;0.00;;;;;;;6.30;100.00;102788.84;10453650;28;20059;-68
2021/12/19 06:33:45;;;;;;;0.00;0.00;;;;;;;6.27;100.00;102778.44;10425823;28;20041;-68
2021/12/19 06:38:45;;;;;;;0.00;0.00;;;;;;;6.28;100.00;102769.56;10443124;28;20654;-69
2021/12/19 06:43:45;;;;;;;0.10;0.10;;;;;;;6.26;100.00;102768.78;10416921;28;20033;-68
2021/12/19 06:48:46;;;;;;;0.00;0.00;;;;;;;6.24;100.00;102761.88;10412083;28;20036;-68
2021/12/19 06:53:46;;;;;;;0.00;0.00;;;;;;;6.23;100.00;102761.03;10415735;28;20424;-68
2021/12/19 06:58:46;;;;;;;0.10;0.10;;;;;;;6.24;100.00;102770.66;10413469;28;20280;-68
2021/12/19 07:03:47;;;;;;;0.08;0.08;;;;;;;6.28;100.00;102755.47;10411638;28;20037;-68
2021/12/19 07:08:47;;;;;;;0.00;0.00;;;;;;;6.27;100.00;102751.97;10442092;28;20029;-68
2021/12/19 07:13:47;;;;;;;0.00;0.00;;;;;;;6.26;100.00;102758.22;10452471;28;20331;-68
2021/12/19 07:18:48;;;;;;;0.00;0.00;;;;;;;6.25;100.00;102742.41;10451651;28;20404;-68
2021/12/19 07:23:48;;;;;;;0.00;0.00;;;;;;;6.26;100.00;102739.69;10451947;28;20075;-68
2021/12/19 07:28:50;;;;;;;0.00;0.00;;;;;;;6.30;100.00;102740.38;10446321;28;20252;-69
2021/12/19 07:33:50;;;;;;;0.00;0.00;;;;;;;6.31;100.00;102742.94;10412118;28;20037;-68
2021/12/19 07:38:58;;;;;;;0.00;0.00;;;;;;;6.33;100.00;102726.97;10431997;28;20036;-68
2021/12/19 07:43:59;;;;;;;0.00;0.00;;;;;;;6.37;100.00;102720.56;10450375;28;20642;-68
2021/12/19 07:48:59;;;;;;;0.00;0.00;;;;;;;6.38;100.00;102724.91;10459041;23;20037;-68
2021/12/19 07:54:01;;;;;;;0.00;0.00;;;;;;;6.38;100.00;102719.63;10425658;28;20052;-67
2021/12/19 07:59:02;;;;;;;0.00;0.00;;;;;;;6.40;100.00;102719.53;10450515;28;20102;-67
2021/12/19 08:04:02;;;;;;;0.05;0.05;;;;;;;6.40;100.00;102720.41;10451223;28;20121;-68
2021/12/19 08:09:12;;;;;;;0.00;0.00;;;;;;;6.42;100.00;102731.72;10417455;28;20068;-67
2021/12/19 08:14:15;;;;;;;0.00;0.00;;;;;;;6.42;100.00;102723.78;10408092;28;20279;-67
2021/12/19 08:19:15;;;;;;;0.00;0.00;;;;;;;6.47;100.00;102728.84;10409884;28;20095;-67
2021/12/19 08:24:16;;;;;;;0.00;0.00;;;;;;;6.54;100.00;102722.25;10440972;28;20099;-67
2021/12/19 08:29:16;;;;;;;0.00;0.00;;;;;;;6.57;100.00;102706.19;10448640;28;20125;-67
2021/12/19 08:34:16;;;;;;;0.00;0.00;;;;;;;6.57;100.00;102695.59;10449772;28;20074;-67
2021/12/19 08:39:17;;;;;;;0.00;0.00;;;;;;;6.57;100.00;102698.25;10449262;28;20283;-67
2021/12/19 08:44:17;;;;;;;0.00;0.00;;;;;;;6.58;100.00;102686.72;10438510;28;20043;-67
2021/12/19 08:49:18;;;;;;;0.00;0.00;;;;;;;6.59;100.00;102675.19;10417489;28;20041;-67
2021/12/19 08:54:18;;;;;;;0.00;0.00;;;;;;;6.63;100.00;102674.06;10449194;28;20079;-67
2021/12/19 08:59:19;;;;;;;0.00;0.00;;;;;;;6.67;100.00;102680.91;10457042;28;20318;-68
2021/12/19 09:04:19;;;;;;;0.00;0.00;;;;;;;6.70;100.00;102658.69;10456853;28;20059;-67
2021/12/19 09:09:19;;;;;;;0.10;0.10;;;;;;;6.72;100.00;102660.31;10451666;28;20476;-68
2021/12/19 09:14:20;;;;;;;0.00;0.00;;;;;;;6.77;100.00;102665.31;10457434;28;20609;-67
2021/12/19 09:19:21;;;;;;;0.10;0.10;;;;;;;6.84;100.00;102681.72;10452218;28;20116;-67
2021/12/19 09:24:21;;;;;;;0.00;0.00;;;;;;;6.87;99.86;102678.91;10448209;28;20260;-68
2021/12/19 09:29:26;;;;;;;0.10;0.10;;;;;;;6.88;100.00;102677.94;10456606;28;20431;-67
2021/12/19 09:34:27;;;;;;;0.03;0.03;;;;;;;6.92;100.00;102674.16;10456855;28;20052;-67
2021/12/19 09:39:28;;;;;;;0.00;0.00;;;;;;;6.92;100.00;102669.75;10456478;28;20028;-67
2021/12/19 09:44:28;;;;;;;0.00;0.00;;;;;;;6.98;100.00;102668.50;10418280;28;20472;-67
2021/12/19 09:49:29;;;;;;;0.00;0.00;;;;;;;7.03;100.00;102651.38;10416086;28;20120;-67
2021/12/19 09:54:29;;;;;;;0.10;0.10;;;;;;;7.11;100.00;102644.81;10422188;28;20060;-68
2021/12/19 09:59:30;;;;;;;0.00;0.00;;;;;;;7.14;100.00;102647.25;10414312;28;20021;-67
2021/12/19 10:04:35;;;;;;;0.10;0.10;;;;;;;7.18;99.99;102627.56;10417342;28;20480;-67
2021/12/19 10:09:49;;;;;;;0.10;0.10;;;;;;;7.18;100.00;102606.38;10413783;28;20499;-67
2021/12/19 10:14:53;;;;;;;0.10;0.10;;;;;;;7.22;99.90;102611.41;10451913;28;20495;-67
2021/12/19 10:19:56;;;;;;;0.10;0.10;;;;;;;7.31;99.33;102630.34;10445757;28;20045;-67
2021/12/19 10:25:07;;;;;;;0.00;0.00;;;;;;;7.33;97.98;102608.09;10448194;28;20503;-67
2021/12/19 10:30:33;;;;;;;0.10;0.10;;;;;;;7.33;98.25;102620.47;10443191;28;20083;-68
2021/12/19 10:35:40;;;;;;;0.00;0.00;;;;;;;7.32;97.59;102594.94;10440096;28;20169;-68
2021/12/19 10:40:56;;;;;;;0.00;0.00;;;;;;;7.35;98.27;102614.13;10442560;28;20041;-68
2021/12/19 10:46:00;;;;;;;0.00;0.00;;;;;;;7.40;97.20;102600.59;10414334;28;20615;-68
2021/12/19 10:51:08;;;;;;;0.00;0.00;;;;;;;7.42;97.35;102598.72;10446587;28;20033;-67
2021/12/19 10:56:26;;;;;;;0.00;0.00;;;;;;;7.42;97.31;102575.72;10453183;28;20033;-67
2021/12/19 11:01:32;;;;;;;0.10;0.10;;;;;;;7.39;97.81;102560.00;10452881;28;20056;-67
2021/12/19 11:06:32;;;;;;;0.00;0.00;;;;;;;7.37;97.39;102545.13;10422989;28;20497;-67
2021/12/19 11:11:54;;;;;;;0.00;0.00;;;;;;;7.41;98.60;102543.97;10415871;28;20045;-67
2021/12/19 11:16:58;;;;;;;0.10;0.10;;;;;;;7.39;98.36;102553.84;10445337;28;20395;-67
2021/12/19 11:21:59;;;;;;;;;;;;;;;7.41;97.53;102541.31;10450748;28;20048;-67
2021/12/19 11:27:02;;;;;;;0.10;0.10;;;;;;;7.38;97.45;102545.00;10451956;28;19912;-67
2021/12/19 11:32:06;;;;;;;0.00;0.00;;;;;;;7.39;97.54;102538.78;10452379;28;20059;-67
2021/12/19 11:37:06;;;;;;;0.10;0.10;;;;;;;7.39;97.99;102546.75;10435422;28;20033;-68
2021/12/19 11:42:14;;;;;;;0.08;0.08;;;;;;;7.40;97.96;102536.97;10448829;28;20041;-68
2021/12/19 11:47:39;;;;;;;0.03;0.03;;;;;;;7.46;97.58;102516.22;10449957;28;20403;-68
2021/12/19 11:52:40;;;;;;;0.10;0.10;;;;;;;7.53;97.03;102510.53;10451140;28;20079;-68
2021/12/19 11:57:41;;;;;;;0.00;0.00;;;;;;;7.56;96.19;102516.47;10416055;28;20025;-67
2021/12/19 12:02:41;;;;;;;0.00;0.00;;;;;;;7.59;95.91;102504.84;10409843;28;20783;-67
2021/12/19 12:08:03;;;;;;;0.00;0.00;;;;;;;7.59;95.22;102494.22;10422205;28;20025;-67
2021/12/19 12:13:04;;;;;;;0.00;0.00;;;;;;;7.56;95.63;102497.91;10450759;28;20040;-67
2021/12/19 12:18:35;;;;;;;0.10;0.10;;;;;;;7.51;95.90;102492.09;10447284;28;20029;-68
2021/12/19 12:23:35;;;;;;;0.00;0.00;;;;;;;7.48;96.29;102479.03;10440500;28;20087;-67
2021/12/19 12:28:36;;;;;;;0.10;0.10;;;;;;;7.44;95.94;102464.25;10449432;28;20051;-68
2021/12/19 12:33:40;;;;;;;0.00;0.00;;;;;;;7.42;95.29;102460.88;10450018;28;20634;-68
2021/12/19 12:38:45;;;;;;;0.00;0.00;;;;;;;7.39;94.77;102438.06;10441839;28;20051;-68
2021/12/19 12:43:45;;;;;;;0.03;0.03;;;;;;;7.40;94.52;102446.84;10449419;28;20080;-68
2021/12/19 12:48:58;;;;;;;0.03;0.03;;;;;;;7.40;94.33;102428.28;10449133;28;20071;-67
2021/12/19 12:54:07;;;;;;;0.10;0.10;;;;;;;7.41;93.88;102440.59;10445390;28;20037;-67
2021/12/19 12:59:08;;;;;;;0.00;0.00;;;;;;;7.42;92.93;102423.75;10446637;28;20112;-67
2021/12/19 13:04:08;;;;;;;0.00;0.00;;;;;;;7.38;94.09;102428.38;10441173;28;20104;-67
2021/12/19 13:09:32;;;;;;;0.08;0.08;;;;;;;7.37;93.01;102425.84;10431744;28;20148;-67
2021/12/19 13:14:36;;;;;;;0.00;0.00;;;;;;;7.31;94.25;102428.88;10446259;28;20029;-68
2021/12/19 13:19:55;;;;;;;0.03;0.03;;;;;;;7.22;94.35;102412.63;10447476;28;20025;-67
2021/12/19 13:25:06;;;;;;;0.10;0.10;;;;;;;7.16;94.08;102423.63;10448879;28;20037;-67
2021/12/19 13:30:20;;;;;;;0.03;0.03;;;;;;;7.14;94.65;102417.56;10450387;28;20033;-67
2021/12/19 13:35:25;;;;;;;0.08;0.08;;;;;;;7.10;95.41;102434.59;10426370;28;20129;-67
2021/12/19 13:40:32;;;;;;;0.10;0.10;;;;;;;7.07;91.20;102433.94;10445105;28;20037;-67
2021/12/19 13:45:32;;;;;;;0.00;0.00;;;;;;;7.02;87.60;102421.00;10454895;28;20024;-67
2021/12/19 13:50:39;;;;;;;0.00;0.00;;;;;;;6.92;86.74;102409.25;10455311;28;20119;-67
2021/12/19 13:55:45;;;;;;;0.00;0.00;;;;;;;6.79;87.08;102420.63;10456092;28;20275;-68
2021/12/19 14:00:51;;;;;;;0.00;0.00;;;;;;;6.64;87.57;102411.00;10453472;28;20102;-67
2021/12/19 14:05:56;;;;;;;0.00;0.00;;;;;;;6.54;89.44;102402.78;10450866;28;20033;-67
2021/12/19 14:11:05;;;;;;;0.00;0.00;;;;;;;6.54;90.04;102425.72;10419654;28;20029;-68
2021/12/19 14:16:10;;;;;;;0.00;0.00;;;;;;;6.54;90.03;102417.78;10453207;28;20533;-68
2021/12/19 14:21:35;;;;;;;0.00;0.00;;;;;;;6.48;88.59;102416.38;10453067;28;20074;-67
2021/12/19 14:26:36;;;;;;;0.00;0.00;;;;;;;6.33;89.17;102434.03;10452545;28;20540;-67
2021/12/19 14:31:48;;;;;;;0.05;0.05;;;;;;;6.16;90.05;102428.03;10453916;28;20033;-68
2021/12/19 14:36:49;;;;;;;0.00;0.00;;;;;;;6.05;91.60;102420.72;10446404;28;20030;-68
2021/12/19 14:41:49;;;;;;;0.00;0.00;;;;;;;5.96;91.77;102423.94;10453432;28;20037;-67
2021/12/19 14:46:50;;;;;;;0.00;0.00;;;;;;;5.86;92.01;102431.53;10433760;23;20503;-68
2021/12/19 14:51:58;;;;;;;0.00;0.00;;;;;;;5.76;93.26;102428.56;10376981;28;20049;-68
2021/12/19 14:56:59;;;;;;;0.00;0.00;;;;;;;5.68;93.82;102428.16;10328948;28;20301;-68
2021/12/19 15:01:59;;;;;;;0.10;0.10;;;;;;;5.61;95.00;102418.84;10329880;28;20038;-68
2021/12/19 15:07:00;;;;;;;0.00;0.00;;;;;;;5.56;95.38;102405.06;10330023;28;20473;-68
2021/12/19 15:12:01;;;;;;;0.00;0.00;;;;;;;5.47;96.09;102414.38;10329925;28;20270;-68
2021/12/19 15:17:02;;;;;;;0.00;0.00;;;;;;;5.39;96.62;102412.16;10334040;28;20109;-67
2021/12/19 15:22:02;;;;;;;0.00;0.00;;;;;;;5.32;97.03;102421.34;10364633;28;20125;-69
2021/12/19 15:27:03;;;;;;;0.00;0.00;;;;;;;5.24;98.01;102420.13;10369675;28;20033;-67
2021/12/19 15:32:04;;;;;;;0.00;0.00;;;;;;;5.18;98.43;102437.16;10369447;28;20113;-67
2021/12/19 15:37:05;;;;;;;0.10;0.10;;;;;;;5.12;99.26;102437.47;10369025;28;20025;-67
2021/12/19 15:42:06;;;;;;;0.00;0.00;;;;;;;5.14;99.42;102443.53;10369286;28;20113;-68
2021/12/19 15:47:06;;;;;;;0.05;0.05;;;;;;;5.14;99.34;102433.81;10366140;28;20104;-68
2021/12/19 15:52:07;;;;;;;0.00;0.00;;;;;;;5.16;99.88;102454.88;10367923;28;20029;-68
2021/12/19 15:57:08;;;;;;;0.00;0.00;;;;;;;5.18;100.00;102447.72;10365630;28;20033;-68
2021/12/19 16:02:14;;;;;;;0.00;0.00;;;;;;;5.19;100.00;102455.53;10332901;28;20046;-67
2021/12/19 16:07:15;;;;;;;0.00;0.00;;;;;;;5.16;99.96;102452.22;10366352;28;20038;-67
2021/12/19 16:12:16;;;;;;;0.00;0.00;;;;;;;5.08;100.00;102468.47;10367809;28;20037;-68
2021/12/19 16:17:18;;;;;;;0.00;0.00;;;;;;;5.02;100.00;102473.25;10342488;28;20496;-68
2021/12/19 16:22:18;;;;;;;0.00;0.00;;;;;;;4.92;100.00;102470.25;10367467;28;20034;-68
2021/12/19 16:27:19;;;;;;;0.00;0.00;;;;;;;4.80;100.00;102474.41;10366776;28;20029;-67
2021/12/19 16:32:19;;;;;;;0.00;0.00;;;;;;;4.71;100.00;102481.03;10368411;28;20034;-68
2021/12/19 16:37:19;;;;;;;0.00;0.00;;;;;;;4.62;100.00;102464.81;10368402;28;20054;-68
2021/12/19 16:47:21;;;;;;;0.00;0.00;;;;;;;4.42;100.00;102493.09;10365798;28;20033;-68
2021/12/19 16:52:22;;;;;;;0.00;0.00;;;;;;;4.31;100.00;102501.56;10368568;28;20038;-68
2021/12/19 16:57:22;;;;;;;0.00;0.00;;;;;;;4.21;100.00;102495.00;10367596;28;20402;-67
2021/12/19 17:02:24;;;;;;;0.00;0.00;;;;;;;4.12;100.00;102508.66;10368605;28;20038;-68
2021/12/19 17:07:24;;;;;;;0.10;0.10;;;;;;;4.04;100.00;102510.81;10376492;28;20029;-68
2021/12/19 17:12:24;;;;;;;0.00;0.00;;;;;;;3.93;100.00;102507.88;10374364;28;20040;-67
2021/12/19 17:17:25;;;;;;;0.00;0.00;;;;;;;3.82;100.00;102519.78;10376572;28;20036;-67
2021/12/19 17:22:25;;;;;;;0.00;0.00;;;;;;;3.72;100.00;102520.28;10376294;28;20066;-67
2021/12/19 17:27:25;;;;;;;0.00;0.00;;;;;;;3.63;100.00;102532.97;10375706;28;20034;-67
2021/12/19 17:32:26;;;;;;;0.00;0.00;;;;;;;3.55;100.00;102534.25;10375915;28;20446;-68
2021/12/19 17:37:27;;;;;;;0.00;0.00;;;;;;;3.50;100.00;102541.56;10374805;28;20032;-67
2021/12/19 17:42:27;;;;;;;0.00;0.00;;;;;;;3.39;100.00;102548.16;10371603;28;20129;-66
2021/12/19 17:47:28;;;;;;;0.00;0.00;;;;;;;3.30;100.00;102548.59;10374832;28;20034;-67
2021/12/19 17:52:29;;;;;;;0.00;0.00;;;;;;;3.20;100.00;102554.31;10374423;28;20036;-67
2021/12/19 17:57:29;;;;;;;0.00;0.00;;;;;;;3.13;100.00;102554.59;10374251;28;20393;-67
2021/12/19 18:02:29;;;;;;;0.00;0.00;;;;;;;3.05;100.00;102547.97;10374435;28;20033;-67
2021/12/19 18:07:30;;;;;;;0.00;0.00;;;;;;;2.94;100.00;102559.84;10373996;28;20041;-67
2021/12/19 18:12:30;;;;;;;0.00;0.00;;;;;;;2.85;100.00;102564.63;10370272;28;20093;-67
2021/12/19 18:17:32;;;;;;;0.00;0.00;;;;;;;2.74;100.00;102556.38;10372577;28;20026;-67
2021/12/19 18:22:32;;;;;;;0.00;0.00;;;;;;;2.66;100.00;102565.44;10373045;28;20041;-67
2021/12/19 18:27:33;;;;;;;0.00;0.00;;;;;;;2.59;100.00;102571.00;10373158;28;20384;-68
2021/12/19 18:32:33;;;;;;;0.00;0.00;;;;;;;2.53;100.00;102563.38;10373487;28;20774;-67
2021/12/19 18:37:37;;;;;;;0.00;0.00;;;;;;;2.40;100.00;102566.53;10372562;28;20038;-67
2021/12/19 18:43:04;;;;;;;0.00;0.00;;;;;;;2.32;100.00;102555.47;10369199;28;20473;-67
2021/12/19 18:53:30;;;;;;;0.00;0.00;;;;;;;2.22;100.00;102583.06;10372650;28;20138;-67
2021/12/19 18:58:32;;;;;;;0.00;0.00;;;;;;;2.17;100.00;102577.13;10371627;28;20456;-67
2021/12/19 19:08:35;;;;;;;0.00;0.00;;;;;;;2.02;100.00;102581.25;10371542;28;20125;-67
2021/12/19 19:13:35;;;;;;;0.00;0.00;;;;;;;1.96;100.00;102579.69;10371522;28;20124;-67
2021/12/19 19:18:35;;;;;;;0.00;0.00;;;;;;;1.96;100.00;102592.84;10348589;28;20088;-67
2021/12/19 19:23:36;;;;;;;0.00;0.00;;;;;;;1.93;100.00;102600.00;10328263;28;20071;-67
2021/12/19 19:28:36;;;;;;;0.00;0.00;;;;;;;1.90;100.00;102598.34;10346984;28;20307;-67
2021/12/19 19:33:36;;;;;;;0.00;0.00;;;;;;;1.92;100.00;102601.78;10369487;28;20022;-67
2021/12/19 19:44:06;;;;;;;0.00;0.00;;;;;;;1.99;100.00;102626.03;10357219;28;20108;-66
2021/12/19 19:54:08;;;;;;;0.00;0.00;;;;;;;1.89;100.00;102622.03;10368727;28;20037;-66
2021/12/19 19:59:12;;;;;;;0.00;0.00;;;;;;;1.82;100.00;102621.44;10367082;28;20113;-66
2021/12/19 20:04:13;;;;;;;0.00;0.00;;;;;;;1.78;100.00;102644.34;10367776;28;20128;-66
2021/12/19 20:09:15;;;;;;;0.00;0.00;;;;;;;1.68;100.00;102642.97;10366038;28;20121;-67
2021/12/19 20:14:22;;;;;;;0.00;0.00;;;;;;;1.60;100.00;102647.66;10358205;28;20061;-65
2021/12/19 20:19:23;;;;;;;0.00;0.00;;;;;;;1.56;100.00;102648.69;10367452;28;20105;-66
2021/12/19 20:24:24;;;;;;;0.00;0.00;;;;;;;1.47;100.00;102656.91;10366576;28;20129;-67
2021/12/19 20:29:25;;;;;;;0.00;0.00;;;;;;;1.43;100.00;102652.69;10367354;28;20057;-67
2021/12/19 20:34:26;;;;;;;0.00;0.00;;;;;;;1.38;100.00;102654.59;10367286;28;20463;-66
2021/12/19 20:39:26;;;;;;;0.00;0.00;;;;;;;1.26;100.00;102658.53;10336087;28;20038;-67
2021/12/19 20:44:26;;;;;;;0.00;0.00;;;;;;;1.18;100.00;102658.78;10361309;28;20048;-67
2021/12/19 20:49:27;;;;;;;0.00;0.00;;;;;;;1.11;100.00;102665.16;10357048;28;20500;-66
2021/12/19 20:54:27;;;;;;;0.00;0.00;;;;;;;1.05;100.00;102675.88;10350631;28;20022;-67
2021/12/19 20:59:28;;;;;;;0.00;0.00;;;;;;;0.99;100.00;102670.81;10366287;28;20036;-67
2021/12/19 21:04:28;;;;;;;0.00;0.00;;;;;;;0.89;100.00;102681.63;10366721;28;20030;-67
2021/12/19 21:09:29;;;;;;;0.00;0.00;;;;;;;0.83;100.00;102673.97;10363504;28;20455;-66
2021/12/19 21:15:24;;;;;;;0.00;0.00;;;;;;;0.78;100.00;102683.75;10366546;28;20038;-67
2021/12/19 21:19:50;;;;;;;0.00;0.00;;;;;;;0.74;100.00;102669.03;10352700;28;20100;-67
2021/12/19 21:24:50;;;;;;;0.00;0.00;;;;;;;0.69;100.00;102681.41;10334263;28;20168;-67
2021/12/19 21:29:52;;;;;;;0.00;0.00;;;;;;;0.62;100.00;102682.53;10326003;28;20018;-68
2021/12/19 21:35:23;;;;;;;0.00;0.00;;;;;;;0.50;100.00;102696.06;10325539;28;20030;-67
2021/12/19 21:40:24;;;;;;;0.00;0.00;;;;;;;0.39;100.00;102699.84;10326387;28;20486;-67
2021/12/19 21:45:25;;;;;;;0.00;0.00;;;;;;;0.30;100.00;102704.53;10363742;28;20038;-67
2021/12/19 21:50:26;;;;;;;0.00;0.00;;;;;;;0.21;100.00;102700.44;10366737;28;20065;-68
2021/12/19 21:55:26;;;;;;;0.00;0.00;;;;;;;0.09;100.00;102695.53;10372788;28;20084;-68
2021/12/19 22:00:29;;;;;;;0.00;0.00;;;;;;;-0.04;100.00;102688.03;10367471;28;20049;-68
2021/12/19 22:05:30;;;;;;;0.00;0.00;;;;;;;-0.17;100.00;102689.31;10373002;28;20036;-68
2021/12/19 22:10:31;;;;;;;0.00;0.00;;;;;;;-0.27;100.00;102688.69;10339745;28;20056;-68
2021/12/19 22:15:37;;;;;;;0.10;0.10;;;;;;;-0.27;100.00;102691.31;10372038;28;20025;-68
2021/12/19 22:20:40;;;;;;;0.00;0.00;;;;;;;-0.30;100.00;102687.94;10371321;28;20036;-68
2021/12/19 22:25:41;;;;;;;0.00;0.00;;;;;;;-0.33;100.00;102690.66;10417183;23;20123;-70
2021/12/19 22:30:46;;;;;;;0.03;0.03;;;;;;;-0.34;100.00;102692.41;10442254;28;20033;-69
2021/12/19 22:35:47;;;;;;;0.10;0.10;;;;;;;-0.33;100.00;102694.13;10413803;28;20116;-69
2021/12/19 22:40:47;;;;;;;0.07;0.07;;;;;;;-0.33;100.00;102694.13;10412764;28;20137;-69
2021/12/19 22:45:47;;;;;;;0.00;0.00;;;;;;;-0.36;100.00;102688.13;10414025;28;20278;-69
2021/12/19 22:50:48;;;;;;;0.10;0.10;;;;;;;-0.38;100.00;102695.16;10432172;28;20033;-70
2021/12/19 22:55:50;;;;;;;0.10;0.10;;;;;;;-0.44;100.00;102706.63;10430267;28;20025;-69
2021/12/19 23:01:04;;;;;;;0.10;0.10;;;;;;;-0.47;100.00;102706.72;10452005;28;20480;-69
2021/12/19 23:06:05;;;;;;;0.00;0.00;;;;;;;-0.44;100.00;102708.41;10452276;28;20025;-69
2021/12/19 23:11:13;;;;;;;0.10;0.10;;;;;;;-0.43;100.00;102710.16;10452409;28;20033;-69
2021/12/19 23:21:33;;;;;;;0.00;0.00;;;;;;;-0.50;100.00;102715.53;10403640;28;20034;-70
2021/12/19 23:26:34;;;;;;;0.10;0.10;;;;;;;-0.55;100.00;102703.47;10399728;28;20065;-69
2021/12/19 23:31:35;;;;;;;0.00;0.00;;;;;;;-0.56;100.00;102701.75;10423857;28;20589;-69
2021/12/19 23:46:58;;;;;;;0.00;0.00;;;;;;;-0.67;100.00;102709.88;10435469;28;20061;-69
2021/12/19 23:51:59;;;;;;;0.00;0.00;;;;;;;-0.65;100.00;102704.63;10408448;28;20464;-69
2021/12/19 23:56:59;;;;;;;0.00;0.00;;;;;;;-0.66;100.00;102702.91;10418365;28;20048;-69
